sensor_id;sensor_type;location;lat;lon;timestamp;temperature;humidity
23637;DHT22;11995;50.842;4.456;2022-09-01T00:01:05;19.70;99.90
23637;DHT22;11995;50.842;4.456;2022-09-01T00:03:33;19.90;99.90
23637;DHT22;11995;50.842;4.456;2022-09-01T00:06:00;19.90;99.90
23637;DHT22;11995;50.842;4.456;2022-09-01T00:08:28;19.90;99.90
23637;DHT22;11995;50.842;4.456;2022-09-01T00:10:55;19.90;99.90
23637;DHT22;11995;50.842;4.456;2022-09-01T00:13:22;19.80;99.90
23637;DHT22;11995;50.842;4.456;2022-09-01T00:15:49;19.70;99.90
23637;DHT22;11995;50.842;4.456;2022-09-01T00:18:16;19.70;99.90
23637;DHT22;11995;50.842;4.456;2022-09-01T00:20:42;19.80;99.90
23637;DHT22;11995;50.842;4.456;2022-09-01T00:23:09;19.80;99.90
23637;DHT22;11995;50.842;4.456;2022-09-01T00:25:36;19.90;99.90
23637;DHT22;11995;50.842;4.456;2022-09-01T00:28:03;19.80;99.90
23637;DHT22;11995;50.842;4.456;2022-09-01T00:30:30;19.90;99.90
23637;DHT22;11995;50.842;4.456;2022-09-01T00:32:57;19.80;99.90
23637;DHT22;11995;50.842;4.456;2022-09-01T00:35:23;19.80;99.90
23637;DHT22;11995;50.842;4.456;2022-09-01T00:37:50;19.80;99.90
23637;DHT22;11995;50.842;4.456;2022-09-01T00:40:18;19.60;99.90
23637;DHT22;11995;50.842;4.456;2022-09-01T00:42:45;19.60;99.90
23637;DHT22;11995;50.842;4.456;2022-09-01T00:45:13;19.50;99.90
23637;DHT22;11995;50.842;4.456;2022-09-01T00:47:40;19.40;99.90
23637;DHT22;11995;50.842;4.456;2022-09-01T00:50:07;19.40;99.90
23637;DHT22;11995;50.842;4.456;2022-09-01T00:52:38;19.50;99.90
23637;DHT22;11995;50.842;4.456;2022-09-01T00:55:10;19.50;99.90
23637;DHT22;11995;50.842;4.456;2022-09-01T00:57:36;19.40;99.90
23637;DHT22;11995;50.842;4.456;2022-09-01T01:00:07;19.40;99.90
23637;DHT22;11995;50.842;4.456;2022-09-01T01:02:33;19.40;99.90
23637;DHT22;11995;50.842;4.456;2022-09-01T01:05:03;19.30;99.90
23637;DHT22;11995;50.842;4.456;2022-09-01T01:07:31;19.20;99.90
23637;DHT22;11995;50.842;4.456;2022-09-01T01:10:00;19.20;99.90
23637;DHT22;11995;50.842;4.456;2022-09-01T01:12:27;19.20;99.90
23637;DHT22;11995;50.842;4.456;2022-09-01T01:14:55;19.20;99.90
23637;DHT22;11995;50.842;4.456;2022-09-01T01:17:22;19.20;99.90
23637;DHT22;11995;50.842;4.456;2022-09-01T01:19:50;19.20;99.90
23637;DHT22;11995;50.842;4.456;2022-09-01T01:25:32;19.20;99.90
23637;DHT22;11995;50.842;4.456;2022-09-01T01:28:15;19.20;99.90
23637;DHT22;11995;50.842;4.456;2022-09-01T01:30:44;19.10;99.90
23637;DHT22;11995;50.842;4.456;2022-09-01T01:33:13;19.00;99.90
23637;DHT22;11995;50.842;4.456;2022-09-01T01:35:40;19.00;99.90
23637;DHT22;11995;50.842;4.456;2022-09-01T01:38:08;18.90;99.90
23637;DHT22;11995;50.842;4.456;2022-09-01T01:40:36;18.90;99.90
23637;DHT22;11995;50.842;4.456;2022-09-01T01:43:03;18.90;99.90
23637;DHT22;11995;50.842;4.456;2022-09-01T01:45:30;18.90;99.90
23637;DHT22;11995;50.842;4.456;2022-09-01T01:47:57;18.80;99.90
23637;DHT22;11995;50.842;4.456;2022-09-01T01:50:27;18.80;99.90
23637;DHT22;11995;50.842;4.456;2022-09-01T01:52:55;18.80;99.90
23637;DHT22;11995;50.842;4.456;2022-09-01T01:55:24;18.70;99.90
23637;DHT22;11995;50.842;4.456;2022-09-01T01:57:53;18.80;99.90
23637;DHT22;11995;50.842;4.456;2022-09-01T02:00:22;18.70;99.90
23637;DHT22;11995;50.842;4.456;2022-09-01T02:02:50;18.70;99.90
23637;DHT22;11995;50.842;4.456;2022-09-01T02:05:24;18.60;99.90
23637;DHT22;11995;50.842;4.456;2022-09-01T02:07:52;18.70;99.90
23637;DHT22;11995;50.842;4.456;2022-09-01T02:10:21;18.80;99.90
23637;DHT22;11995;50.842;4.456;2022-09-01T02:12:49;18.80;99.90
23637;DHT22;11995;50.842;4.456;2022-09-01T02:15:15;18.90;99.90
23637;DHT22;11995;50.842;4.456;2022-09-01T02:17:43;19.00;99.90
23637;DHT22;11995;50.842;4.456;2022-09-01T02:20:11;19.00;99.90
23637;DHT22;11995;50.842;4.456;2022-09-01T02:22:40;19.20;99.90
23637;DHT22;11995;50.842;4.456;2022-09-01T02:25:09;19.20;99.90
23637;DHT22;11995;50.842;4.456;2022-09-01T02:27:37;19.20;99.90
23637;DHT22;11995;50.842;4.456;2022-09-01T02:30:05;19.10;99.90
23637;DHT22;11995;50.842;4.456;2022-09-01T02:32:34;19.20;99.90
23637;DHT22;11995;50.842;4.456;2022-09-01T02:35:02;19.20;99.90
23637;DHT22;11995;50.842;4.456;2022-09-01T02:37:31;19.20;99.90
23637;DHT22;11995;50.842;4.456;2022-09-01T02:39:58;19.30;99.90
23637;DHT22;11995;50.842;4.456;2022-09-01T02:42:25;19.20;99.90
23637;DHT22;11995;50.842;4.456;2022-09-01T02:44:53;19.10;99.90
23637;DHT22;11995;50.842;4.456;2022-09-01T02:47:20;19.30;99.90
23637;DHT22;11995;50.842;4.456;2022-09-01T02:49:49;19.10;99.90
23637;DHT22;11995;50.842;4.456;2022-09-01T02:52:16;19.10;99.90
23637;DHT22;11995;50.842;4.456;2022-09-01T02:54:45;18.90;99.90
23637;DHT22;11995;50.842;4.456;2022-09-01T02:57:14;18.90;99.90
23637;DHT22;11995;50.842;4.456;2022-09-01T02:59:41;19.00;99.90
23637;DHT22;11995;50.842;4.456;2022-09-01T03:02:08;18.90;99.90
23637;DHT22;11995;50.842;4.456;2022-09-01T03:04:35;18.80;99.90
23637;DHT22;11995;50.842;4.456;2022-09-01T03:07:02;18.80;99.90
23637;DHT22;11995;50.842;4.456;2022-09-01T03:09:30;18.90;99.90
23637;DHT22;11995;50.842;4.456;2022-09-01T03:11:57;19.00;99.90
23637;DHT22;11995;50.842;4.456;2022-09-01T03:14:24;19.00;99.90
23637;DHT22;11995;50.842;4.456;2022-09-01T03:16:51;19.00;99.90
23637;DHT22;11995;50.842;4.456;2022-09-01T03:19:18;19.00;99.90
23637;DHT22;11995;50.842;4.456;2022-09-01T03:21:45;18.90;99.90
23637;DHT22;11995;50.842;4.456;2022-09-01T03:24:14;18.80;99.90
23637;DHT22;11995;50.842;4.456;2022-09-01T03:26:41;18.70;99.90
23637;DHT22;11995;50.842;4.456;2022-09-01T03:29:09;18.60;99.90
23637;DHT22;11995;50.842;4.456;2022-09-01T03:31:36;18.50;99.90
23637;DHT22;11995;50.842;4.456;2022-09-01T03:34:04;18.50;99.90
23637;DHT22;11995;50.842;4.456;2022-09-01T03:36:31;18.40;99.90
23637;DHT22;11995;50.842;4.456;2022-09-01T03:38:58;18.20;99.90
23637;DHT22;11995;50.842;4.456;2022-09-01T03:41:26;18.20;99.90
23637;DHT22;11995;50.842;4.456;2022-09-01T03:43:54;18.20;99.90
23637;DHT22;11995;50.842;4.456;2022-09-01T03:46:23;18.20;99.90
23637;DHT22;11995;50.842;4.456;2022-09-01T03:48:55;18.10;99.90
23637;DHT22;11995;50.842;4.456;2022-09-01T03:51:24;18.20;99.90
23637;DHT22;11995;50.842;4.456;2022-09-01T03:53:51;18.20;99.90
23637;DHT22;11995;50.842;4.456;2022-09-01T03:56:22;18.00;99.90
23637;DHT22;11995;50.842;4.456;2022-09-01T03:58:50;18.00;99.90
23637;DHT22;11995;50.842;4.456;2022-09-01T04:01:17;17.90;99.90
23637;DHT22;11995;50.842;4.456;2022-09-01T04:03:44;17.80;99.90
23637;DHT22;11995;50.842;4.456;2022-09-01T04:06:14;17.80;99.90
23637;DHT22;11995;50.842;4.456;2022-09-01T04:08:43;17.80;99.90
23637;DHT22;11995;50.842;4.456;2022-09-01T04:11:16;17.80;99.90
23637;DHT22;11995;50.842;4.456;2022-09-01T04:13:47;17.90;99.90
23637;DHT22;11995;50.842;4.456;2022-09-01T04:16:16;17.90;99.90
23637;DHT22;11995;50.842;4.456;2022-09-01T04:18:45;17.70;99.90
23637;DHT22;11995;50.842;4.456;2022-09-01T04:21:14;17.70;99.90
23637;DHT22;11995;50.842;4.456;2022-09-01T04:23:43;17.60;99.90
23637;DHT22;11995;50.842;4.456;2022-09-01T04:26:11;17.50;99.90
23637;DHT22;11995;50.842;4.456;2022-09-01T04:28:41;17.40;99.90
23637;DHT22;11995;50.842;4.456;2022-09-01T04:31:11;17.40;99.90
23637;DHT22;11995;50.842;4.456;2022-09-01T04:33:39;17.30;99.90
23637;DHT22;11995;50.842;4.456;2022-09-01T04:38:46;17.40;99.90
23637;DHT22;11995;50.842;4.456;2022-09-01T04:41:14;17.20;99.90
23637;DHT22;11995;50.842;4.456;2022-09-01T04:43:43;17.30;99.90
23637;DHT22;11995;50.842;4.456;2022-09-01T04:46:12;17.30;99.90
23637;DHT22;11995;50.842;4.456;2022-09-01T04:48:40;17.40;99.90
23637;DHT22;11995;50.842;4.456;2022-09-01T04:51:09;17.40;99.90
23637;DHT22;11995;50.842;4.456;2022-09-01T04:53:40;17.40;99.90
23637;DHT22;11995;50.842;4.456;2022-09-01T04:56:09;17.20;99.90
23637;DHT22;11995;50.842;4.456;2022-09-01T04:58:36;17.30;99.90
23637;DHT22;11995;50.842;4.456;2022-09-01T05:01:12;17.30;99.90
23637;DHT22;11995;50.842;4.456;2022-09-01T05:03:32;17.20;99.90
23637;DHT22;11995;50.842;4.456;2022-09-01T05:06:00;17.30;99.90
23637;DHT22;11995;50.842;4.456;2022-09-01T05:08:27;17.40;99.90
23637;DHT22;11995;50.842;4.456;2022-09-01T05:10:54;17.20;99.90
23637;DHT22;11995;50.842;4.456;2022-09-01T05:13:21;17.10;99.90
23637;DHT22;11995;50.842;4.456;2022-09-01T05:15:58;17.20;99.90
23637;DHT22;11995;50.842;4.456;2022-09-01T05:18:23;17.20;99.90
23637;DHT22;11995;50.842;4.456;2022-09-01T05:20:50;17.10;99.90
23637;DHT22;11995;50.842;4.456;2022-09-01T05:23:18;17.00;99.90
23637;DHT22;11995;50.842;4.456;2022-09-01T05:25:50;17.00;99.90
23637;DHT22;11995;50.842;4.456;2022-09-01T05:28:15;16.90;99.90
23637;DHT22;11995;50.842;4.456;2022-09-01T05:30:44;16.90;99.90
23637;DHT22;11995;50.842;4.456;2022-09-01T05:33:12;16.90;99.90
23637;DHT22;11995;50.842;4.456;2022-09-01T05:35:41;16.90;99.90
23637;DHT22;11995;50.842;4.456;2022-09-01T05:38:11;16.90;99.90
23637;DHT22;11995;50.842;4.456;2022-09-01T05:40:39;16.90;99.90
23637;DHT22;11995;50.842;4.456;2022-09-01T05:43:07;16.80;99.90
23637;DHT22;11995;50.842;4.456;2022-09-01T05:45:36;16.90;99.90
23637;DHT22;11995;50.842;4.456;2022-09-01T05:48:03;16.90;99.90
23637;DHT22;11995;50.842;4.456;2022-09-01T05:50:30;16.90;99.90
23637;DHT22;11995;50.842;4.456;2022-09-01T05:52:57;17.00;99.90
23637;DHT22;11995;50.842;4.456;2022-09-01T05:55:24;17.00;99.90
23637;DHT22;11995;50.842;4.456;2022-09-01T05:57:52;17.00;99.90
23637;DHT22;11995;50.842;4.456;2022-09-01T06:00:19;17.10;99.90
23637;DHT22;11995;50.842;4.456;2022-09-01T06:02:47;17.20;99.90
23637;DHT22;11995;50.842;4.456;2022-09-01T06:05:14;17.30;99.90
23637;DHT22;11995;50.842;4.456;2022-09-01T06:07:41;17.20;99.90
23637;DHT22;11995;50.842;4.456;2022-09-01T06:10:09;17.30;99.90
23637;DHT22;11995;50.842;4.456;2022-09-01T06:12:36;17.30;99.90
23637;DHT22;11995;50.842;4.456;2022-09-01T06:15:03;17.30;99.90
23637;DHT22;11995;50.842;4.456;2022-09-01T06:17:32;17.30;99.90
23637;DHT22;11995;50.842;4.456;2022-09-01T06:19:59;17.40;99.90
23637;DHT22;11995;50.842;4.456;2022-09-01T06:22:27;17.50;99.90
23637;DHT22;11995;50.842;4.456;2022-09-01T06:24:54;17.60;99.90
23637;DHT22;11995;50.842;4.456;2022-09-01T06:27:21;17.90;99.90
23637;DHT22;11995;50.842;4.456;2022-09-01T06:29:48;18.10;99.90
23637;DHT22;11995;50.842;4.456;2022-09-01T06:32:17;18.30;99.90
23637;DHT22;11995;50.842;4.456;2022-09-01T06:34:44;18.40;99.90
23637;DHT22;11995;50.842;4.456;2022-09-01T06:37:12;18.70;99.90
23637;DHT22;11995;50.842;4.456;2022-09-01T06:39:40;19.20;99.90
23637;DHT22;11995;50.842;4.456;2022-09-01T06:42:08;19.20;99.90
23637;DHT22;11995;50.842;4.456;2022-09-01T06:44:37;19.70;99.90
23637;DHT22;11995;50.842;4.456;2022-09-01T06:47:04;19.90;99.90
23637;DHT22;11995;50.842;4.456;2022-09-01T06:49:33;20.00;99.90
23637;DHT22;11995;50.842;4.456;2022-09-01T06:52:01;20.00;99.90
23637;DHT22;11995;50.842;4.456;2022-09-01T06:54:29;20.10;99.90
23637;DHT22;11995;50.842;4.456;2022-09-01T06:56:58;20.10;99.90
23637;DHT22;11995;50.842;4.456;2022-09-01T06:59:27;20.10;99.90
23637;DHT22;11995;50.842;4.456;2022-09-01T07:01:56;20.20;99.90
23637;DHT22;11995;50.842;4.456;2022-09-01T07:04:25;20.40;99.90
23637;DHT22;11995;50.842;4.456;2022-09-01T07:06:57;20.60;99.90
23637;DHT22;11995;50.842;4.456;2022-09-01T07:09:31;20.60;99.90
23637;DHT22;11995;50.842;4.456;2022-09-01T07:11:57;20.80;99.90
23637;DHT22;11995;50.842;4.456;2022-09-01T07:14:26;20.70;99.90
23637;DHT22;11995;50.842;4.456;2022-09-01T07:16:54;20.60;99.90
23637;DHT22;11995;50.842;4.456;2022-09-01T07:19:22;20.40;99.90
23637;DHT22;11995;50.842;4.456;2022-09-01T07:21:51;20.50;99.90
23637;DHT22;11995;50.842;4.456;2022-09-01T07:24:19;20.90;99.90
23637;DHT22;11995;50.842;4.456;2022-09-01T07:26:46;21.20;99.90
23637;DHT22;11995;50.842;4.456;2022-09-01T07:29:17;20.80;99.90
23637;DHT22;11995;50.842;4.456;2022-09-01T07:31:46;20.80;99.90
23637;DHT22;11995;50.842;4.456;2022-09-01T07:34:13;20.70;99.90
23637;DHT22;11995;50.842;4.456;2022-09-01T07:36:42;20.90;99.90
23637;DHT22;11995;50.842;4.456;2022-09-01T07:39:10;21.20;99.90
23637;DHT22;11995;50.842;4.456;2022-09-01T07:41:40;21.00;99.90
23637;DHT22;11995;50.842;4.456;2022-09-01T07:44:08;21.10;99.90
23637;DHT22;11995;50.842;4.456;2022-09-01T07:46:37;21.10;99.90
23637;DHT22;11995;50.842;4.456;2022-09-01T07:49:04;21.00;99.90
23637;DHT22;11995;50.842;4.456;2022-09-01T07:51:31;21.20;99.90
23637;DHT22;11995;50.842;4.456;2022-09-01T07:53:59;21.20;99.90
23637;DHT22;11995;50.842;4.456;2022-09-01T07:56:27;21.00;99.90
23637;DHT22;11995;50.842;4.456;2022-09-01T07:58:56;20.80;99.90
23637;DHT22;11995;50.842;4.456;2022-09-01T08:01:24;21.10;99.90
23637;DHT22;11995;50.842;4.456;2022-09-01T08:03:56;21.20;99.90
23637;DHT22;11995;50.842;4.456;2022-09-01T08:06:20;21.40;99.90
23637;DHT22;11995;50.842;4.456;2022-09-01T08:08:49;21.60;99.90
23637;DHT22;11995;50.842;4.456;2022-09-01T08:11:20;21.40;99.90
23637;DHT22;11995;50.842;4.456;2022-09-01T08:13:49;21.50;99.90
23637;DHT22;11995;50.842;4.456;2022-09-01T08:16:16;21.50;99.90
23637;DHT22;11995;50.842;4.456;2022-09-01T08:18:44;21.50;99.90
23637;DHT22;11995;50.842;4.456;2022-09-01T08:21:12;21.50;99.90
23637;DHT22;11995;50.842;4.456;2022-09-01T08:23:40;21.40;99.90
23637;DHT22;11995;50.842;4.456;2022-09-01T08:26:09;21.40;99.90
23637;DHT22;11995;50.842;4.456;2022-09-01T08:28:35;21.40;99.90
23637;DHT22;11995;50.842;4.456;2022-09-01T08:31:05;21.50;99.90
23637;DHT22;11995;50.842;4.456;2022-09-01T08:33:32;21.60;99.90
23637;DHT22;11995;50.842;4.456;2022-09-01T08:36:00;21.70;99.90
23637;DHT22;11995;50.842;4.456;2022-09-01T08:38:27;21.60;99.90
23637;DHT22;11995;50.842;4.456;2022-09-01T08:40:55;21.50;99.90
23637;DHT22;11995;50.842;4.456;2022-09-01T08:45:51;21.60;99.90
23637;DHT22;11995;50.842;4.456;2022-09-01T08:53:36;21.90;99.40
23637;DHT22;11995;50.842;4.456;2022-09-01T08:56:02;21.90;99.20
23637;DHT22;11995;50.842;4.456;2022-09-01T08:58:30;22.00;99.60
23637;DHT22;11995;50.842;4.456;2022-09-01T09:01:02;21.90;99.50
23637;DHT22;11995;50.842;4.456;2022-09-01T09:03:31;21.90;99.50
23637;DHT22;11995;50.842;4.456;2022-09-01T09:08:54;21.90;99.60
23637;DHT22;11995;50.842;4.456;2022-09-01T09:16:40;22.10;99.30
23637;DHT22;11995;50.842;4.456;2022-09-01T09:19:10;22.10;99.30
23637;DHT22;11995;50.842;4.456;2022-09-01T09:21:45;22.20;99.80
23637;DHT22;11995;50.842;4.456;2022-09-01T09:26:50;22.70;98.50
23637;DHT22;11995;50.842;4.456;2022-09-01T09:29:18;22.90;98.50
23637;DHT22;11995;50.842;4.456;2022-09-01T09:31:47;22.80;97.80
23637;DHT22;11995;50.842;4.456;2022-09-01T09:34:29;22.60;97.80
23637;DHT22;11995;50.842;4.456;2022-09-01T09:37:15;22.70;97.40
23637;DHT22;11995;50.842;4.456;2022-09-01T09:39:25;22.60;97.20
23637;DHT22;11995;50.842;4.456;2022-09-01T09:42:09;22.60;97.00
23637;DHT22;11995;50.842;4.456;2022-09-01T09:44:32;22.60;96.50
23637;DHT22;11995;50.842;4.456;2022-09-01T09:46:59;22.40;96.60
23637;DHT22;11995;50.842;4.456;2022-09-01T09:49:33;22.40;96.50
23637;DHT22;11995;50.842;4.456;2022-09-01T09:54:30;22.50;94.50
23637;DHT22;11995;50.842;4.456;2022-09-01T09:57:08;22.40;94.20
23637;DHT22;11995;50.842;4.456;2022-09-01T09:59:46;22.40;93.70
23637;DHT22;11995;50.842;4.456;2022-09-01T10:02:20;22.70;93.40
23637;DHT22;11995;50.842;4.456;2022-09-01T10:04:42;22.80;93.40
23637;DHT22;11995;50.842;4.456;2022-09-01T10:07:26;22.80;93.10
23637;DHT22;11995;50.842;4.456;2022-09-01T10:09:53;22.90;93.10
23637;DHT22;11995;50.842;4.456;2022-09-01T10:12:22;22.90;92.80
23637;DHT22;11995;50.842;4.456;2022-09-01T10:15:06;22.80;93.00
23637;DHT22;11995;50.842;4.456;2022-09-01T10:17:34;22.80;93.00
23637;DHT22;11995;50.842;4.456;2022-09-01T10:20:14;22.80;92.60
23637;DHT22;11995;50.842;4.456;2022-09-01T10:22:37;22.80;92.30
23637;DHT22;11995;50.842;4.456;2022-09-01T10:25:06;22.80;92.10
23637;DHT22;11995;50.842;4.456;2022-09-01T10:27:38;23.00;91.50
23637;DHT22;11995;50.842;4.456;2022-09-01T10:30:06;23.00;91.50
23637;DHT22;11995;50.842;4.456;2022-09-01T10:32:36;23.10;91.50
23637;DHT22;11995;50.842;4.456;2022-09-01T10:35:01;23.00;90.70
23637;DHT22;11995;50.842;4.456;2022-09-01T10:37:29;23.10;90.90
23637;DHT22;11995;50.842;4.456;2022-09-01T10:42:43;23.10;89.30
23637;DHT22;11995;50.842;4.456;2022-09-01T10:45:18;23.20;89.30
23637;DHT22;11995;50.842;4.456;2022-09-01T10:47:44;23.20;89.60
23637;DHT22;11995;50.842;4.456;2022-09-01T10:55:16;23.50;89.00
23637;DHT22;11995;50.842;4.456;2022-09-01T10:57:43;23.60;88.20
23637;DHT22;11995;50.842;4.456;2022-09-01T11:00:53;23.60;87.60
23637;DHT22;11995;50.842;4.456;2022-09-01T11:02:41;23.50;88.30
23637;DHT22;11995;50.842;4.456;2022-09-01T11:05:09;23.40;87.90
23637;DHT22;11995;50.842;4.456;2022-09-01T11:07:36;23.60;87.80
23637;DHT22;11995;50.842;4.456;2022-09-01T11:20:28;23.70;86.20
23637;DHT22;11995;50.842;4.456;2022-09-01T11:22:59;23.80;84.50
23637;DHT22;11995;50.842;4.456;2022-09-01T11:28:05;23.80;84.50
23637;DHT22;11995;50.842;4.456;2022-09-01T11:30:33;23.80;84.60
23637;DHT22;11995;50.842;4.456;2022-09-01T11:35:44;23.90;83.50
23637;DHT22;11995;50.842;4.456;2022-09-01T11:38:13;23.80;83.50
23637;DHT22;11995;50.842;4.456;2022-09-01T11:40:40;23.70;84.00
23637;DHT22;11995;50.842;4.456;2022-09-01T11:43:13;23.70;85.20
23637;DHT22;11995;50.842;4.456;2022-09-01T11:48:24;24.00;83.60
23637;DHT22;11995;50.842;4.456;2022-09-01T11:50:56;23.80;84.20
23637;DHT22;11995;50.842;4.456;2022-09-01T11:53:23;24.00;84.00
23637;DHT22;11995;50.842;4.456;2022-09-01T11:55:51;24.20;83.80
23637;DHT22;11995;50.842;4.456;2022-09-01T12:00:55;24.30;83.10
23637;DHT22;11995;50.842;4.456;2022-09-01T12:03:25;24.30;83.40
23637;DHT22;11995;50.842;4.456;2022-09-01T12:05:55;24.10;83.00
23637;DHT22;11995;50.842;4.456;2022-09-01T12:08:24;24.00;82.80
23637;DHT22;11995;50.842;4.456;2022-09-01T12:11:03;23.90;83.30
23637;DHT22;11995;50.842;4.456;2022-09-01T12:13:29;24.00;82.80
23637;DHT22;11995;50.842;4.456;2022-09-01T12:15:57;24.30;82.50
23637;DHT22;11995;50.842;4.456;2022-09-01T12:18:30;24.60;82.00
23637;DHT22;11995;50.842;4.456;2022-09-01T12:20:57;24.80;82.00
23637;DHT22;11995;50.842;4.456;2022-09-01T12:23:24;24.70;81.80
23637;DHT22;11995;50.842;4.456;2022-09-01T12:25:52;24.50;82.40
23637;DHT22;11995;50.842;4.456;2022-09-01T12:28:24;24.40;83.00
23637;DHT22;11995;50.842;4.456;2022-09-01T12:30:52;24.60;81.90
23637;DHT22;11995;50.842;4.456;2022-09-01T12:33:22;24.80;81.50
23637;DHT22;11995;50.842;4.456;2022-09-01T12:35:49;25.00;79.90
23637;DHT22;11995;50.842;4.456;2022-09-01T12:40:49;24.60;80.90
23637;DHT22;11995;50.842;4.456;2022-09-01T12:43:34;24.50;80.50
23637;DHT22;11995;50.842;4.456;2022-09-01T12:46:04;24.40;81.00
23637;DHT22;11995;50.842;4.456;2022-09-01T12:48:33;24.20;81.40
23637;DHT22;11995;50.842;4.456;2022-09-01T12:51:14;24.30;81.00
23637;DHT22;11995;50.842;4.456;2022-09-01T12:53:32;24.20;80.10
23637;DHT22;11995;50.842;4.456;2022-09-01T12:56:05;24.20;80.60
23637;DHT22;11995;50.842;4.456;2022-09-01T12:58:28;24.50;80.70
23637;DHT22;11995;50.842;4.456;2022-09-01T13:03:25;24.60;80.40
23637;DHT22;11995;50.842;4.456;2022-09-01T13:05:55;24.80;80.30
23637;DHT22;11995;50.842;4.456;2022-09-01T13:08:27;24.80;80.70
23637;DHT22;11995;50.842;4.456;2022-09-01T13:11:01;24.80;80.70
23637;DHT22;11995;50.842;4.456;2022-09-01T13:13:26;24.80;79.60
23637;DHT22;11995;50.842;4.456;2022-09-01T13:15:55;24.50;80.90
23637;DHT22;11995;50.842;4.456;2022-09-01T13:18:24;24.60;80.70
23637;DHT22;11995;50.842;4.456;2022-09-01T13:20:52;24.40;80.60
23637;DHT22;11995;50.842;4.456;2022-09-01T13:23:19;24.50;81.50
23637;DHT22;11995;50.842;4.456;2022-09-01T13:25:46;24.90;80.30
23637;DHT22;11995;50.842;4.456;2022-09-01T13:28:13;24.90;80.50
23637;DHT22;11995;50.842;4.456;2022-09-01T13:30:42;24.60;80.50
23637;DHT22;11995;50.842;4.456;2022-09-01T13:33:09;24.60;80.90
23637;DHT22;11995;50.842;4.456;2022-09-01T13:35:37;24.80;79.40
23637;DHT22;11995;50.842;4.456;2022-09-01T13:38:05;24.80;79.60
23637;DHT22;11995;50.842;4.456;2022-09-01T13:40:31;24.80;78.70
23637;DHT22;11995;50.842;4.456;2022-09-01T13:42:58;24.70;78.70
23637;DHT22;11995;50.842;4.456;2022-09-01T13:45:25;24.60;79.40
23637;DHT22;11995;50.842;4.456;2022-09-01T13:47:53;24.60;80.30
23637;DHT22;11995;50.842;4.456;2022-09-01T13:50:21;24.70;79.10
23637;DHT22;11995;50.842;4.456;2022-09-01T13:52:49;24.60;79.10
23637;DHT22;11995;50.842;4.456;2022-09-01T13:55:19;24.30;78.70
23637;DHT22;11995;50.842;4.456;2022-09-01T13:57:45;24.10;79.70
23637;DHT22;11995;50.842;4.456;2022-09-01T14:00:13;24.10;80.10
23637;DHT22;11995;50.842;4.456;2022-09-01T14:02:47;24.00;79.40
23637;DHT22;11995;50.842;4.456;2022-09-01T14:05:18;24.20;79.30
23637;DHT22;11995;50.842;4.456;2022-09-01T14:07:45;24.30;79.10
23637;DHT22;11995;50.842;4.456;2022-09-01T14:10:14;24.40;78.50
23637;DHT22;11995;50.842;4.456;2022-09-01T14:12:41;24.60;78.20
23637;DHT22;11995;50.842;4.456;2022-09-01T14:15:09;24.70;77.40
23637;DHT22;11995;50.842;4.456;2022-09-01T14:17:56;24.50;77.70
23637;DHT22;11995;50.842;4.456;2022-09-01T14:20:33;24.40;78.30
23637;DHT22;11995;50.842;4.456;2022-09-01T14:23:01;24.50;79.20
23637;DHT22;11995;50.842;4.456;2022-09-01T14:25:29;24.80;77.70
23637;DHT22;11995;50.842;4.456;2022-09-01T14:27:58;24.90;77.40
23637;DHT22;11995;50.842;4.456;2022-09-01T14:30:27;24.80;77.60
23637;DHT22;11995;50.842;4.456;2022-09-01T14:32:54;24.80;76.70
23637;DHT22;11995;50.842;4.456;2022-09-01T14:35:22;24.70;77.00
23637;DHT22;11995;50.842;4.456;2022-09-01T14:37:50;24.80;76.80
23637;DHT22;11995;50.842;4.456;2022-09-01T14:40:18;24.60;77.40
23637;DHT22;11995;50.842;4.456;2022-09-01T14:42:46;24.90;76.70
23637;DHT22;11995;50.842;4.456;2022-09-01T14:45:14;25.00;75.70
23637;DHT22;11995;50.842;4.456;2022-09-01T14:47:49;25.00;75.50
23637;DHT22;11995;50.842;4.456;2022-09-01T14:50:16;24.90;75.40
23637;DHT22;11995;50.842;4.456;2022-09-01T14:52:46;24.90;75.80
23637;DHT22;11995;50.842;4.456;2022-09-01T14:55:13;24.90;75.40
23637;DHT22;11995;50.842;4.456;2022-09-01T14:57:40;24.80;75.70
23637;DHT22;11995;50.842;4.456;2022-09-01T15:00:08;24.80;74.80
23637;DHT22;11995;50.842;4.456;2022-09-01T15:02:37;24.60;75.40
23637;DHT22;11995;50.842;4.456;2022-09-01T15:05:04;24.90;74.50
23637;DHT22;11995;50.842;4.456;2022-09-01T15:07:32;24.90;74.40
23637;DHT22;11995;50.842;4.456;2022-09-01T15:09:59;24.90;73.60
23637;DHT22;11995;50.842;4.456;2022-09-01T15:12:26;24.80;73.50
23637;DHT22;11995;50.842;4.456;2022-09-01T15:15:00;24.60;73.60
23637;DHT22;11995;50.842;4.456;2022-09-01T15:17:24;24.60;74.10
23637;DHT22;11995;50.842;4.456;2022-09-01T15:19:51;24.60;73.30
23637;DHT22;11995;50.842;4.456;2022-09-01T15:22:18;24.60;74.00
23637;DHT22;11995;50.842;4.456;2022-09-01T15:24:45;24.30;73.70
23637;DHT22;11995;50.842;4.456;2022-09-01T15:27:12;24.30;73.80
23637;DHT22;11995;50.842;4.456;2022-09-01T15:29:39;24.30;73.50
23637;DHT22;11995;50.842;4.456;2022-09-01T15:32:07;24.30;73.60
23637;DHT22;11995;50.842;4.456;2022-09-01T15:34:35;24.30;73.40
23637;DHT22;11995;50.842;4.456;2022-09-01T15:37:02;24.30;73.10
23637;DHT22;11995;50.842;4.456;2022-09-01T15:39:29;24.40;73.80
23637;DHT22;11995;50.842;4.456;2022-09-01T15:41:56;24.60;73.30
23637;DHT22;11995;50.842;4.456;2022-09-01T15:44:23;24.90;71.90
23637;DHT22;11995;50.842;4.456;2022-09-01T15:46:50;24.90;70.90
23637;DHT22;11995;50.842;4.456;2022-09-01T15:49:19;24.70;71.00
23637;DHT22;11995;50.842;4.456;2022-09-01T15:51:46;24.60;72.00
23637;DHT22;11995;50.842;4.456;2022-09-01T15:54:14;24.50;71.90
23637;DHT22;11995;50.842;4.456;2022-09-01T15:56:43;24.50;72.30
23637;DHT22;11995;50.842;4.456;2022-09-01T15:59:11;24.40;73.00
23637;DHT22;11995;50.842;4.456;2022-09-01T16:01:40;24.30;72.80
23637;DHT22;11995;50.842;4.456;2022-09-01T16:04:07;24.30;71.70
23637;DHT22;11995;50.842;4.456;2022-09-01T16:06:36;24.30;71.30
23637;DHT22;11995;50.842;4.456;2022-09-01T16:09:04;24.20;71.70
23637;DHT22;11995;50.842;4.456;2022-09-01T16:14:04;24.70;70.50
23637;DHT22;11995;50.842;4.456;2022-09-01T16:24:47;24.20;69.60
23637;DHT22;11995;50.842;4.456;2022-09-01T16:27:17;24.20;70.00
23637;DHT22;11995;50.842;4.456;2022-09-01T16:29:46;24.20;70.20
23637;DHT22;11995;50.842;4.456;2022-09-01T16:32:14;24.10;70.10
23637;DHT22;11995;50.842;4.456;2022-09-01T16:34:42;24.30;70.20
23637;DHT22;11995;50.842;4.456;2022-09-01T16:37:14;24.40;70.30
23637;DHT22;11995;50.842;4.456;2022-09-01T16:45:04;24.20;70.80
23637;DHT22;11995;50.842;4.456;2022-09-01T16:47:51;24.20;71.80
23637;DHT22;11995;50.842;4.456;2022-09-01T16:52:59;24.50;70.70
23637;DHT22;11995;50.842;4.456;2022-09-01T17:03:25;24.20;70.70
23637;DHT22;11995;50.842;4.456;2022-09-01T17:06:07;24.30;70.40